Station: Wudinna Airport  

  Atmospheric Gas Attenuation - ITU Rec 676-11   ----------------- dB/100km -----------------
Date Time Temp RH % AH g/m3 Dew Point Wind Direction Speed kph Gust kph Barometer mB Rainfall Since 9am 24GHz 47GHz 76GHz 122GHz 134GHz 241GHz
08/05 12:10 16.5 53 7.44 6.9 20 24 1033.3 0 17.0 24.1 34.9 91.1 82.0 281.1
08/05 12:00 16.3 54 7.49 7 19 32 1033.5 0 17.1 24.2 35.2 91.9 82.8 284.0
08/05 11:50 16.5 54 7.58 7.2 19 20 1033.5 0 17.3 24.3 35.4 92.5 83.7 287.2
08/05 11:40 16.2 57 7.86 7.7 22 24 1033.6 0 17.9 24.8 36.6 95.7 87.6 300.7
08/05 11:30 15.8 57 7.67 7.3 17 26 1033.7 0 17.5 24.6 36.1 94.3 85.6 293.8
08/05 11:20 15.8 57 7.67 7.3 15 17 1033.7 0 17.5 24.6 36.1 94.3 85.6 293.8
08/05 11:10 16 58 7.9 7.7 22 24 1033.8 0 18.0 24.9 36.9 96.4 88.3 303.2
08/05 11:00 15.7 57 7.63 7.2 17 22 1033.9 0 17.4 24.6 36.0 94.0 85.2 292.4
08/05 10:50 15.7 59 7.89 7.7 17 17 1033.9 0 18.0 25.0 37.0 96.7 88.5 304.0
08/05 10:40 15.6 59 7.85 7.6 17 20 1033.9 0 17.9 25.0 36.9 96.4 88.1 302.6
08/05 10:30 15.4 60 7.88 7.7 15 22 1034 0 18.0 25.1 37.1 96.9 88.8 304.7
08/05 10:20 15.3 61 7.97 7.8 13 15 1033.9 0 18.2 25.2 37.5 98.0 90.0 309.1
08/05 10:10 15.1 61 7.87 7.6 15 17 1033.9 0 18.0 25.1 37.2 97.2 89.0 305.4
08/05 10:00 15 61 7.82 7.5 13 17 1033.9 0 17.9 25.1 37.0 96.8 88.4 303.5
08/05 09:50 14.9 61 7.77 7.5 15 15 1033.8 0 17.8 25.0 36.9 96.4 87.9 301.6
08/05 09:40 14.6 64 8.01 7.9 9 9 1033.8 0 18.3 25.5 38.0 99.3 91.3 313.6
08/05 09:30 14.4 65 8.04 7.9 7 9 1033.8 0 18.3 25.6 38.2 99.8 92.0 315.8
08/05 09:20 14.3 66 8.11 8 6 7 1033.7 0 18.5 25.7 38.5 100.7 93.0 319.3
08/05 09:10 14 67 8.08 8 7 9 1033.8 0 18.5 25.8 38.5 100.8 92.9 319.2
08/05 09:00 13.8 68 8.1 8 7 9 1033.8 0 18.5 25.9 38.7 101.2 93.4 320.9
08/05 08:50 13.7 70 8.29 8.3 7 9 1033.7 0 18.9 26.2 39.5 103.4 96.1 330.1
08/05 08:40 13.5 71 8.31 8.4 9 11 1033.6 0 19.0 26.3 39.7 103.8 96.6 331.8
08/05 08:30 13.1 74 8.44 8.6 9 13 1033.7 0 19.3 26.6 40.4 105.8 98.8 339.7
08/05 08:20 12.6 77 8.52 8.7 11 11 1033.6 0 19.5 26.9 41.0 107.3 100.5 345.6
08/05 08:10 12.5 79 8.69 9 9 11 1033.5 0 19.8 27.2 41.8 109.3 103.0 354.1
08/05 08:00 12.1 80 8.58 8.8 4 13 1033.5 0 19.6 27.1 41.5 108.7 102.0 350.6
08/05 07:50 11.7 81 8.47 8.6 0 2 1033.3 0 19.4 27.1 41.2 108.0 101.0 347.1
08/05 07:40 11.6 81 8.42 8.5 0 0 1033.2 0 19.3 27.0 41.1 107.6 100.4 345.1
08/05 07:30 11.4 81 8.32 8.3 4 9 1033.1 0 19.1 26.9 40.8 106.7 99.3 341.2
08/05 07:20 11.4 82 8.42 8.4 9 9 1033.1 0 19.3 27.1 41.2 107.8 100.7 346.0
08/05 07:10 11.2 83 8.41 8.4 7 9 1033.1 0 19.3 27.1 41.2 108.0 100.8 346.4
08/05 07:00 11.3 83 8.47 8.5 0 0 1032.9 0 19.4 27.2 41.4 108.5 101.5 348.8
08/05 06:50 11.2 83 8.41 8.4 0 0 1032.8 0 19.3 27.1 41.2 108.0 100.8 346.3
08/05 06:40 11.2 83 8.41 8.4 0 0 1032.9 0 19.3 27.1 41.2 108.0 100.8 346.3
08/05 06:30 11.3 83 8.47 8.5 0 0 1032.9 0 19.4 27.2 41.4 108.5 101.5 348.8
08/05 06:20 11.2 84 8.52 8.6 0 0 1032.9 0 19.5 27.3 41.7 109.2 102.3 351.6
08/05 06:10 11.3 84 8.57 8.7 4 6 1032.8 0 19.6 27.3 41.9 109.6 102.9 353.6
08/05 06:00 11.3 84 8.57 8.7 0 0 1032.8 0 19.6 27.3 41.9 109.6 102.9 353.6
08/05 05:50 11.3 83 8.47 8.5 0 0 1032.8 0 19.4 27.2 41.4 108.5 101.5 348.7
08/05 05:40 11.2 83 8.41 8.4 0 0 1032.7 0 19.3 27.1 41.2 107.9 100.8 346.3
08/05 05:30 11.1 83 8.36 8.3 0 0 1032.7 0 19.2 27.0 41.1 107.5 100.2 344.3
08/05 05:20 11.1 83 8.36 8.3 0 0 1032.7 0 19.2 27.0 41.1 107.5 100.2 344.3
08/05 05:10 11.1 82 8.26 8.1 0 0 1032.7 0 19.0 26.9 40.7 106.4 98.9 339.5
08/05 05:00 11.1 82 8.26 8.1 6 7 1032.7 0 19.0 26.9 40.7 106.4 98.9 339.5
08/05 04:50 11.1 82 8.26 8.1 6 7 1032.7 0 19.0 26.9 40.7 106.4 98.9 339.5
08/05 04:40 11.1 81 8.16 8 7 7 1032.7 0 18.8 26.7 40.2 105.3 97.5 334.7
08/05 04:30 11.1 80 8.06 7.8 9 13 1032.7 0 18.5 26.5 39.8 104.2 96.1 329.9
08/05 04:20 11.3 79 8.06 7.8 7 9 1032.7 0 18.5 26.5 39.7 103.9 95.9 329.1
08/05 04:10 11.2 79 8.01 7.7 6 6 1032.6 0 18.4 26.4 39.6 103.5 95.3 327.1
08/05 04:00 11.3 80 8.16 8 4 7 1032.6 0 18.7 26.6 40.1 105.0 97.2 333.8
08/05 03:50 10.9 81 8.06 7.8 4 6 1032.5 0 18.6 26.6 39.9 104.4 96.4 330.7
08/05 03:40 10.8 82 8.11 7.9 6 7 1032.5 0 18.7 26.7 40.2 105.1 97.2 333.5
08/05 03:30 10.5 84 8.15 7.9 2 9 1032.7 0 18.8 26.9 40.5 106.0 98.1 336.8
08/05 03:20 10.6 85 8.3 8.2 0 0 1032.7 0 19.1 27.1 41.1 107.5 100.0 343.6
08/05 03:10 10.5 85 8.25 8.1 6 6 1032.7 0 19.0 27.0 40.9 107.1 99.5 341.6
08/05 03:00 10.5 85 8.25 8.1 6 9 1032.6 0 19.0 27.0 40.9 107.1 99.5 341.6
08/05 02:50 10.4 86 8.29 8.2 9 9 1032.6 0 19.1 27.1 41.1 107.7 100.2 344.0
08/05 02:40 10.1 87 8.23 8 0 0 1032.6 0 19.0 27.1 41.0 107.4 99.7 342.4
08/05 02:30 9.9 88 8.22 8 0 0 1032.7 0 18.9 27.2 41.1 107.6 99.8 342.8
08/05 02:20 9.7 88 8.11 7.8 0 0 1032.6 0 18.7 27.0 40.7 106.6 98.6 338.3
08/05 02:10 9.7 88 8.11 7.8 0 0 1032.6 0 18.7 27.0 40.7 106.6 98.6 338.3
08/05 02:00 9.4 88 7.96 7.5 2 6 1032.6 0 18.4 26.9 40.3 105.3 96.9 332.3
08/05 01:50 9 88 7.76 7.1 4 6 1032.7 0 18.0 26.7 39.6 103.6 94.6 324.3
08/05 01:40 8.8 88 7.66 6.9 7 9 1032.7 0 17.8 26.6 39.3 102.8 93.4 320.2
08/05 01:30 8.5 88 7.52 6.6 0 0 1032.8 0 17.5 26.4 38.9 101.6 91.9 314.7
08/05 01:20 8.4 89 7.55 6.7 0 0 1032.8 0 17.6 26.5 39.0 102.1 92.4 316.6
08/05 01:10 8 89 7.36 6.3 4 6 1032.9 0 17.2 26.3 38.4 100.5 90.3 309.0
08/05 01:00 7.5 88 7.05 5.6 7 7 1032.9 0 16.5 25.9 37.4 97.6 86.6 295.9
08/05 00:50 7.4 88 7 5.5 6 7 1032.8 0 16.4 25.9 37.2 97.2 86.0 293.8
08/05 00:40 7.2 88 6.91 5.3 2 6 1032.9 0 16.3 25.8 36.9 96.5 85.0 290.3
08/05 00:30 7.3 88 6.96 5.4 6 9 1032.8 0 16.4 25.8 37.1 96.9 85.5 292.3
08/05 00:20 7.5 88 7.05 5.6 7 9 1032.9 0 16.5 25.9 37.4 97.6 86.6 295.9
08/05 00:10 7.4 89 7.08 5.7 0 0 1032.9 0 16.6 26.0 37.6 98.1 87.1 297.7
08/05 00:00 6.8 89 6.81 5.1 6 9 1032.9 0 16.1 25.7 36.7 95.8 84.0 286.9
07/05 23:50 6.7 89 6.77 5 7 9 1032.9 0 16.0 25.7 36.6 95.5 83.6 285.4
07/05 23:40 6.5 88 6.6 4.7 0 0 1033.1 0 15.6 25.5 36.0 93.9 81.5 278.0
07/05 23:30 6.1 88 6.43 4.3 0 0 1033.1 0 15.3 25.3 35.5 92.5 79.6 271.2
07/05 23:20 5.5 87 6.11 3.5 0 0 1033.2 0 14.6 24.9 34.4 89.6 75.8 257.9
07/05 23:10 5.7 87 6.2 3.7 0 0 1033.2 0 14.8 25.0 34.7 90.4 76.8 261.6
07/05 23:00 5.7 86 6.12 3.5 2 7 1033.2 0 14.6 24.9 34.4 89.5 75.7 257.7
07/05 22:50 5.9 86 6.2 3.7 7 9 1033.3 0 14.8 25.0 34.6 90.2 76.6 260.9
07/05 22:40 6.4 85 6.34 4.1 0 0 1033.3 0 15.1 25.1 35.0 91.1 78.0 265.9
07/05 22:30 6.9 85 6.55 4.6 0 0 1033.5 0 15.5 25.3 35.6 92.9 80.4 274.2
07/05 22:20 7.2 85 6.68 4.9 0 0 1033.4 0 15.8 25.4 36.0 94.0 81.9 279.4
07/05 22:10 6.5 84 6.3 4 0 0 1033.4 0 15.0 25.0 34.8 90.6 77.4 263.7
07/05 22:00 6.7 82 6.23 3.9 0 0 1033.5 0 14.8 24.8 34.4 89.6 76.3 259.7
07/05 21:50 7.4 81 6.44 4.4 0 0 1033.4 0 15.2 25.0 34.9 91.1 78.4 267.3
07/05 21:40 8.3 81 6.83 5.2 0 0 1033.3 0 16.0 25.3 36.1 94.3 82.7 282.5
07/05 21:30 8.7 80 6.92 5.4 0 0 1033.2 0 16.2 25.4 36.3 94.8 83.5 285.3
07/05 21:20 9.4 78 7.06 5.8 0 0 1033.2 0 16.5 25.4 36.6 95.4 84.6 289.4
07/05 21:10 9.8 77 7.15 6 6 6 1033.1 0 16.7 25.4 36.7 95.9 85.4 292.1
07/05 21:00 10.1 77 7.28 6.3 7 11 1033.1 0 16.9 25.6 37.1 97.0 86.8 297.1
07/05 20:50 10.2 76 7.23 6.2 9 11 1033.2 0 16.8 25.5 36.9 96.3 86.0 294.4
07/05 20:40 10.4 76 7.33 6.4 11 13 1033.1 0 17.0 25.6 37.2 97.1 87.1 298.3
07/05 20:30 10.6 75 7.32 6.4 13 17 1033.1 0 17.0 25.5 37.1 96.8 86.8 297.1
07/05 20:20 10.6 74 7.22 6.2 11 13 1033 0 16.8 25.3 36.6 95.7 85.4 292.4
07/05 20:10 10.9 73 7.26 6.3 11 13 1032.9 0 16.8 25.3 36.7 95.8 85.6 293.1
07/05 20:00 11 71 7.11 6 13 17 1032.9 0 16.5 25.0 36.0 94.0 83.5 285.8
07/05 19:50 11.3 69 7.04 5.8 15 17 1032.7 0 16.4 24.8 35.6 92.9 82.3 281.5
07/05 19:40 11.5 68 7.02 5.8 17 19 1032.7 0 16.3 24.7 35.4 92.5 81.8 279.8

Last Refresh: 08-May-2026 12:09:36

Bureau of Meteorology